createdAt,value
2022-09-17T00:00:47.411Z,7.23
2022-09-17T00:03:14.116Z,9.73
2022-09-17T00:05:40.728Z,5.43
2022-09-17T00:08:10.182Z,4.73
2022-09-17T00:10:43.406Z,7.57
2022-09-17T00:13:10.525Z,6.10
2022-09-17T00:15:45.020Z,4.00
2022-09-17T00:18:13.432Z,6.33
2022-09-17T00:20:46.108Z,5.27
2022-09-17T00:23:13.967Z,5.50
2022-09-17T00:25:42.787Z,4.33
2022-09-17T00:28:10.069Z,6.47
2022-09-17T00:30:42.508Z,6.47
2022-09-17T00:33:12.125Z,3.63
2022-09-17T00:35:38.649Z,6.40
2022-09-17T00:38:05.096Z,6.10
2022-09-17T00:40:31.547Z,8.63
2022-09-17T00:42:57.953Z,5.13
2022-09-17T00:45:25.085Z,6.37
2022-09-17T00:47:58.253Z,5.67
2022-09-17T00:50:39.001Z,4.13
2022-09-17T00:53:09.633Z,6.90
2022-09-17T00:56:06.882Z,8.07
2022-09-17T00:58:40.474Z,5.37
2022-09-17T01:01:07.712Z,5.53
2022-09-17T01:03:34.058Z,9.63
2022-09-17T01:06:34.855Z,5.40
2022-09-17T01:09:20.133Z,6.30
2022-09-17T01:12:01.952Z,5.83
2022-09-17T01:15:10.616Z,4.57
2022-09-17T01:17:39.983Z,5.30
2022-09-17T01:20:37.736Z,8.20
2022-09-17T01:23:10.208Z,7.53
2022-09-17T01:26:01.642Z,8.07
2022-09-17T01:28:37.255Z,6.70
2022-09-17T01:31:25.351Z,6.77
2022-09-17T01:33:57.688Z,6.80
2022-09-17T01:37:00.639Z,6.43
2022-09-17T01:39:34.496Z,7.17
2022-09-17T01:42:18.668Z,8.60
2022-09-17T01:45:04.372Z,7.70
2022-09-17T01:47:54.162Z,7.53
2022-09-17T01:50:29.552Z,9.17
2022-09-17T01:52:57.979Z,6.53
2022-09-17T01:55:31.546Z,7.70
2022-09-17T01:58:05.131Z,12.30
2022-09-17T02:00:32.088Z,7.83
2022-09-17T02:03:10.668Z,9.40
2022-09-17T02:05:43.831Z,7.00
2022-09-17T02:08:24.716Z,8.67
2022-09-17T02:10:58.080Z,11.43
2022-09-17T02:13:39.322Z,8.40
2022-09-17T02:16:10.415Z,7.60
2022-09-17T02:18:44.812Z,8.07
2022-09-17T02:21:17.140Z,11.50
2022-09-17T02:23:57.693Z,7.93
2022-09-17T02:26:26.847Z,6.73
2022-09-17T02:29:07.418Z,10.63
2022-09-17T02:31:33.784Z,7.97
2022-09-17T02:34:03.051Z,9.73
2022-09-17T02:36:32.114Z,8.80
2022-09-17T02:39:03.495Z,8.47
2022-09-17T02:41:40.455Z,7.63
2022-09-17T02:44:22.118Z,9.50
2022-09-17T02:47:27.396Z,10.10
2022-09-17T02:50:11.454Z,7.93
2022-09-17T02:52:55.068Z,8.63
2022-09-17T02:55:41.949Z,12.10
2022-09-17T02:58:17.188Z,11.90
2022-09-17T03:00:45.107Z,9.00
2022-09-17T03:03:35.424Z,9.30
2022-09-17T03:06:02.066Z,7.13
2022-09-17T03:08:38.023Z,12.47
2022-09-17T03:11:06.211Z,7.60
2022-09-17T03:13:32.554Z,9.27
2022-09-17T03:15:58.926Z,8.77
2022-09-17T03:18:26.152Z,10.77
2022-09-17T03:20:52.450Z,8.93
2022-09-17T03:23:18.943Z,9.77
2022-09-17T03:25:46.285Z,6.80
2022-09-17T03:28:12.871Z,9.53
2022-09-17T03:30:39.226Z,14.50
2022-09-17T03:33:05.593Z,11.13
2022-09-17T03:35:32.080Z,10.33
2022-09-17T03:37:58.546Z,11.90
2022-09-17T03:40:24.962Z,12.37
2022-09-17T03:42:51.421Z,8.80
2022-09-17T03:45:17.812Z,8.27
2022-09-17T03:47:44.136Z,11.10
2022-09-17T03:50:10.791Z,9.63
2022-09-17T03:52:37.264Z,6.27
2022-09-17T03:55:03.850Z,10.23
2022-09-17T03:57:30.254Z,10.13
2022-09-17T03:59:56.568Z,7.30
2022-09-17T04:02:23.003Z,11.63
2022-09-17T04:04:49.407Z,11.20
2022-09-17T04:07:15.760Z,6.67
2022-09-17T04:09:42.223Z,8.73
2022-09-17T04:12:08.711Z,7.97
2022-09-17T04:14:35.043Z,7.00
2022-09-17T04:17:01.430Z,5.87
2022-09-17T04:19:27.975Z,9.20
2022-09-17T04:21:54.317Z,13.27
2022-09-17T04:24:20.618Z,9.20
2022-09-17T04:26:47.098Z,12.87
2022-09-17T04:29:13.587Z,9.73
2022-09-17T04:31:40.254Z,8.50
2022-09-17T04:34:07.016Z,8.00
2022-09-17T04:36:33.330Z,9.20
2022-09-17T04:38:59.693Z,12.33
2022-09-17T04:41:26.021Z,10.00
2022-09-17T04:43:52.327Z,8.43
2022-09-17T04:46:19.117Z,10.30
2022-09-17T04:48:45.477Z,7.63
2022-09-17T04:51:12.073Z,11.27
2022-09-17T04:53:38.440Z,10.43
2022-09-17T04:56:05.050Z,9.30
2022-09-17T04:58:32.774Z,8.87
2022-09-17T05:00:59.203Z,10.70
2022-09-17T05:03:25.816Z,10.37
2022-09-17T05:05:52.194Z,9.73
2022-09-17T05:08:18.522Z,8.60
2022-09-17T05:10:45.061Z,10.83
2022-09-17T05:13:11.476Z,9.27
2022-09-17T05:15:37.930Z,10.47
2022-09-17T05:18:04.389Z,11.07
2022-09-17T05:20:30.942Z,9.67
2022-09-17T05:22:57.393Z,10.63
2022-09-17T05:25:26.627Z,11.43
2022-09-17T05:27:53.711Z,7.60
2022-09-17T05:30:21.157Z,12.47
2022-09-17T05:32:47.484Z,8.30
2022-09-17T05:35:14.276Z,11.07
2022-09-17T05:37:41.032Z,9.90
2022-09-17T05:40:09.288Z,11.87
2022-09-17T05:42:35.804Z,13.00
2022-09-17T05:45:02.305Z,12.20
2022-09-17T05:47:28.654Z,10.07
2022-09-17T05:49:55.020Z,9.27
2022-09-17T05:52:21.469Z,9.97
2022-09-17T05:54:48.499Z,16.87
2022-09-17T05:57:15.891Z,8.10
2022-09-17T05:59:42.363Z,6.37
2022-09-17T06:02:13.287Z,10.20
2022-09-17T06:04:39.814Z,8.07
2022-09-17T06:07:10.166Z,8.73
2022-09-17T06:09:40.957Z,11.70
2022-09-17T06:12:07.993Z,9.60
2022-09-17T06:14:34.371Z,6.20
2022-09-17T06:17:00.686Z,11.57
2022-09-17T06:19:27.694Z,7.73
2022-09-17T06:21:55.248Z,7.60
2022-09-17T06:24:21.623Z,9.73
2022-09-17T06:26:47.932Z,7.43
2022-09-17T06:29:15.189Z,10.17
2022-09-17T06:31:44.590Z,11.23
2022-09-17T06:34:11.310Z,6.47
2022-09-17T06:36:37.772Z,7.63
2022-09-17T06:39:04.267Z,10.83
2022-09-17T06:41:30.794Z,7.30
2022-09-17T06:43:57.413Z,9.93
2022-09-17T06:46:23.943Z,8.33
2022-09-17T06:48:50.574Z,9.30
2022-09-17T06:51:17.095Z,10.50
2022-09-17T06:53:43.515Z,9.97
2022-09-17T06:56:10.388Z,9.17
2022-09-17T06:58:37.223Z,13.83
2022-09-17T07:01:04.823Z,11.47
2022-09-17T07:03:31.914Z,9.27
2022-09-17T07:05:58.427Z,8.97
2022-09-17T07:08:26.071Z,9.63
2022-09-17T07:10:56.386Z,7.43
2022-09-17T07:13:23.386Z,9.50
2022-09-17T07:16:09.886Z,10.23
2022-09-17T07:18:37.066Z,7.77
2022-09-17T07:21:05.915Z,9.40
2022-09-17T07:23:34.575Z,7.60
2022-09-17T07:26:06.159Z,6.47
2022-09-17T07:28:32.524Z,10.10
2022-09-17T07:31:04.427Z,10.20
2022-09-17T07:33:31.302Z,10.73
2022-09-17T07:36:00.371Z,10.03
2022-09-17T07:38:29.269Z,6.17
2022-09-17T07:41:01.169Z,10.50
2022-09-17T07:43:29.830Z,9.57
2022-09-17T07:46:00.796Z,10.97
2022-09-17T07:48:28.555Z,9.53
2022-09-17T07:50:55.639Z,13.30
2022-09-17T07:53:25.406Z,8.90
2022-09-17T07:55:53.464Z,10.00
2022-09-17T07:58:21.114Z,8.53
2022-09-17T08:00:48.302Z,10.37
2022-09-17T08:03:14.991Z,9.90
2022-09-17T08:05:41.441Z,8.30
2022-09-17T08:08:07.939Z,13.90
2022-09-17T08:10:34.279Z,7.73
2022-09-17T08:13:00.970Z,8.73
2022-09-17T08:15:27.515Z,6.00
2022-09-17T08:17:54.043Z,7.33
2022-09-17T08:20:20.541Z,8.60
2022-09-17T08:22:50.192Z,10.03
2022-09-17T08:25:16.980Z,12.30
2022-09-17T08:27:43.385Z,9.90
2022-09-17T08:30:09.946Z,12.13
2022-09-17T08:32:36.331Z,9.53
2022-09-17T08:35:02.961Z,3.27
2022-09-17T08:37:32.271Z,5.30
2022-09-17T08:39:58.684Z,9.67
2022-09-17T08:42:38.311Z,10.80
2022-09-17T08:45:10.507Z,7.63
2022-09-17T08:47:45.677Z,5.77
2022-09-17T08:50:19.634Z,6.47
2022-09-17T08:53:16.243Z,9.73
2022-09-17T08:56:01.775Z,9.30
2022-09-17T08:58:52.632Z,8.03
2022-09-17T09:01:34.387Z,7.67
2022-09-17T09:04:24.966Z,7.90
2022-09-17T09:06:55.755Z,6.80
2022-09-17T09:09:28.730Z,3.80
2022-09-17T09:12:05.691Z,4.27
2022-09-17T09:14:40.208Z,7.03
2022-09-17T09:17:09.600Z,8.40
2022-09-17T09:19:45.104Z,9.10
2022-09-17T09:22:45.379Z,7.90
2022-09-17T09:25:23.478Z,10.80
2022-09-17T09:28:18.338Z,8.53
2022-09-17T09:31:03.523Z,7.20
2022-09-17T09:33:46.973Z,5.00
2022-09-17T09:36:21.473Z,5.73
2022-09-17T09:39:01.930Z,6.73
2022-09-17T09:41:43.871Z,4.87
2022-09-17T09:44:12.222Z,5.60
2022-09-17T09:46:57.980Z,6.27
2022-09-17T09:49:30.287Z,5.93
2022-09-17T09:52:13.804Z,4.83
2022-09-17T09:54:52.369Z,3.70
2022-09-17T09:57:31.731Z,4.23
2022-09-17T10:00:28.094Z,6.57
2022-09-17T10:03:00.259Z,8.23
2022-09-17T10:05:27.619Z,4.93
2022-09-17T10:07:54.300Z,7.27
2022-09-17T10:10:21.058Z,6.93
2022-09-17T10:12:47.420Z,6.90
2022-09-17T10:15:25.991Z,4.07
2022-09-17T10:18:13.226Z,7.57
2022-09-17T10:21:01.277Z,3.30
2022-09-17T10:23:30.095Z,8.60
2022-09-17T10:25:56.791Z,5.70
2022-09-17T10:28:39.017Z,6.40
2022-09-17T10:31:10.852Z,6.70
2022-09-17T10:34:02.223Z,6.33
2022-09-17T10:36:38.280Z,4.43
2022-09-17T10:39:27.386Z,4.97
2022-09-17T10:42:02.011Z,9.70
2022-09-17T10:44:31.257Z,4.40
2022-09-17T10:47:22.475Z,3.93
2022-09-17T10:49:56.291Z,3.97
2022-09-17T10:52:29.451Z,4.47
2022-09-17T10:55:34.528Z,5.97
2022-09-17T10:58:16.791Z,4.37
2022-09-17T11:01:17.707Z,3.40
2022-09-17T11:03:53.257Z,3.60
2022-09-17T11:06:22.554Z,5.93
2022-09-17T11:09:13.519Z,4.37
2022-09-17T11:11:55.054Z,5.27
2022-09-17T11:14:56.384Z,3.80
2022-09-17T11:17:43.967Z,3.30
2022-09-17T11:20:43.047Z,5.50
2022-09-17T11:23:47.046Z,4.80
2022-09-17T11:26:58.538Z,4.03
2022-09-17T11:29:24.814Z,6.33
2022-09-17T11:32:00.471Z,3.23
2022-09-17T11:34:38.027Z,3.47
2022-09-17T11:37:23.650Z,7.50
2022-09-17T11:39:55.840Z,4.90
2022-09-17T11:42:28.578Z,3.57
2022-09-17T11:45:02.681Z,8.87
2022-09-17T11:47:40.786Z,4.13
2022-09-17T11:50:20.971Z,4.30
2022-09-17T11:53:04.854Z,2.13
2022-09-17T11:55:39.819Z,5.83
2022-09-17T11:58:27.601Z,6.60
2022-09-17T12:01:09.757Z,4.63
2022-09-17T12:04:01.423Z,1.73
2022-09-17T12:06:52.255Z,3.23
2022-09-17T12:09:28.060Z,2.43
2022-09-17T12:12:08.816Z,2.70
2022-09-17T12:14:57.353Z,1.20
2022-09-17T12:17:36.609Z,1.70
2022-09-17T12:20:09.960Z,1.67
2022-09-17T12:22:41.112Z,2.40
2022-09-17T12:25:13.202Z,1.77
2022-09-17T12:28:00.368Z,1.70
2022-09-17T12:30:38.286Z,2.00
2022-09-17T12:33:23.745Z,5.17
2022-09-17T12:36:04.369Z,1.37
2022-09-17T12:38:35.282Z,2.27
2022-09-17T12:41:26.027Z,2.43
2022-09-17T12:44:20.245Z,2.23
2022-09-17T12:47:14.519Z,4.43
2022-09-17T12:50:02.814Z,2.00
2022-09-17T12:52:41.321Z,2.70
2022-09-17T12:55:26.312Z,3.30
2022-09-17T12:58:07.709Z,1.47
2022-09-17T13:00:42.186Z,8.37
2022-09-17T13:03:11.541Z,2.63
2022-09-17T13:06:14.690Z,3.97
2022-09-17T13:09:02.899Z,4.40
2022-09-17T13:11:41.306Z,2.20
2022-09-17T13:14:39.015Z,1.53
2022-09-17T13:17:17.969Z,4.43
2022-09-17T13:20:08.798Z,3.23
2022-09-17T13:22:45.349Z,0.70
2022-09-17T13:25:16.498Z,1.63
2022-09-17T13:27:44.544Z,2.57
2022-09-17T13:30:12.930Z,0.73
2022-09-17T13:32:39.837Z,2.80
2022-09-17T13:35:14.894Z,6.47
2022-09-17T13:37:53.921Z,1.67
2022-09-17T13:40:28.401Z,1.93
2022-09-17T13:42:57.868Z,1.20
2022-09-17T13:45:26.344Z,3.40
2022-09-17T13:47:54.468Z,1.77
2022-09-17T13:50:28.441Z,2.20
2022-09-17T13:52:57.914Z,2.40
2022-09-17T13:55:39.823Z,1.83
2022-09-17T13:58:28.603Z,3.40
2022-09-17T14:01:11.959Z,1.63
2022-09-17T14:03:41.734Z,2.93
2022-09-17T14:06:08.553Z,2.83
2022-09-17T14:08:44.083Z,1.57
2022-09-17T14:11:22.760Z,1.07
2022-09-17T14:13:49.211Z,3.03
2022-09-17T14:16:37.097Z,1.83
2022-09-17T14:19:16.111Z,1.20
2022-09-17T14:21:57.234Z,1.50
2022-09-17T14:24:26.687Z,5.03
2022-09-17T14:27:06.885Z,1.30
2022-09-17T14:30:01.286Z,4.13
2022-09-17T14:32:33.423Z,2.50
2022-09-17T14:35:19.219Z,1.50
2022-09-17T14:37:52.104Z,2.07
2022-09-17T14:40:20.571Z,2.20
2022-09-17T14:42:51.586Z,2.20
2022-09-17T14:45:24.377Z,1.77
2022-09-17T14:48:20.442Z,1.97
2022-09-17T14:50:46.823Z,5.57
2022-09-17T14:53:18.291Z,2.47
2022-09-17T14:55:47.655Z,4.30
2022-09-17T14:58:32.405Z,3.27
2022-09-17T15:00:59.021Z,4.50
2022-09-17T15:03:25.819Z,3.33
2022-09-17T15:05:52.314Z,5.93
2022-09-17T15:08:24.500Z,2.60
2022-09-17T15:11:03.278Z,2.93
2022-09-17T15:13:41.738Z,1.93
2022-09-17T15:16:20.846Z,1.60
2022-09-17T15:18:52.584Z,3.27
2022-09-17T15:21:36.001Z,3.23
2022-09-17T15:24:15.933Z,3.37
2022-09-17T15:26:47.405Z,2.00
2022-09-17T15:29:14.864Z,2.37
2022-09-17T15:31:41.453Z,4.20
2022-09-17T15:34:12.461Z,3.83
2022-09-17T15:36:39.012Z,4.80
2022-09-17T15:39:39.412Z,4.13
2022-09-17T15:42:05.834Z,3.57
2022-09-17T15:44:32.545Z,5.37
2022-09-17T15:47:37.880Z,9.63
2022-09-17T15:50:15.545Z,7.70
2022-09-17T15:52:42.303Z,9.93
2022-09-17T15:55:48.339Z,5.93
2022-09-17T15:58:36.546Z,9.50
2022-09-17T16:01:18.508Z,5.20
2022-09-17T16:03:44.997Z,6.83
2022-09-17T16:06:20.714Z,2.80
2022-09-17T16:08:48.250Z,3.47
2022-09-17T16:11:15.499Z,4.67
2022-09-17T16:13:42.225Z,4.20
2022-09-17T16:16:17.062Z,6.57
2022-09-17T16:18:43.509Z,8.43
2022-09-17T16:21:18.087Z,7.80
2022-09-17T16:23:45.065Z,5.83
2022-09-17T16:26:19.163Z,5.70
2022-09-17T16:28:48.817Z,3.70
2022-09-17T16:31:15.361Z,4.33
2022-09-17T16:33:41.683Z,9.17
2022-09-17T16:36:08.578Z,6.07
2022-09-17T16:38:35.974Z,6.57
2022-09-17T16:41:05.512Z,5.77
2022-09-17T16:43:33.895Z,5.43
2022-09-17T16:46:05.649Z,5.07
2022-09-17T16:48:33.110Z,5.50
2022-09-17T16:51:01.544Z,9.37
2022-09-17T16:53:27.885Z,6.40
2022-09-17T16:55:54.235Z,9.37
2022-09-17T16:58:20.761Z,10.03
2022-09-17T17:00:47.287Z,6.70
2022-09-17T17:03:16.305Z,10.47
2022-09-17T17:05:43.587Z,7.40
2022-09-17T17:08:10.429Z,10.67
2022-09-17T17:10:40.552Z,6.30
2022-09-17T17:13:07.583Z,7.23
2022-09-17T17:15:34.055Z,10.00
2022-09-17T17:18:00.382Z,7.57
2022-09-17T17:20:26.725Z,4.90
2022-09-17T17:22:53.378Z,5.13
2022-09-17T17:25:19.683Z,5.40
2022-09-17T17:27:46.067Z,5.30
2022-09-17T17:30:17.377Z,9.17
2022-09-17T17:32:49.025Z,10.27
2022-09-17T17:35:15.644Z,3.17
2022-09-17T17:37:42.277Z,4.33
2022-09-17T17:40:10.078Z,6.73
2022-09-17T17:42:39.322Z,7.77
2022-09-17T17:45:07.377Z,6.67
2022-09-17T17:47:34.517Z,4.37
2022-09-17T17:50:00.889Z,4.17
2022-09-17T17:52:27.921Z,4.27
2022-09-17T17:54:54.481Z,6.30
2022-09-17T17:57:20.855Z,8.80
2022-09-17T17:59:47.296Z,7.53
2022-09-17T18:02:13.852Z,3.83
2022-09-17T18:04:40.363Z,5.63
2022-09-17T18:07:07.672Z,5.00
2022-09-17T18:09:33.983Z,4.60
2022-09-17T18:12:00.334Z,7.43
2022-09-17T18:14:26.861Z,5.63
2022-09-17T18:16:53.235Z,7.47
2022-09-17T18:19:19.680Z,6.57
2022-09-17T18:21:46.036Z,7.47
2022-09-17T18:24:12.426Z,5.97
2022-09-17T18:26:38.750Z,9.40
2022-09-17T18:29:07.915Z,7.00
2022-09-17T18:31:36.032Z,8.40
2022-09-17T18:34:06.947Z,7.20
2022-09-17T18:36:35.090Z,5.03
2022-09-17T18:41:52.506Z,7.73
2022-09-17T18:44:21.566Z,5.63
2022-09-17T18:46:49.823Z,9.17
2022-09-17T18:49:16.287Z,7.30
2022-09-17T18:51:42.752Z,7.57
2022-09-17T18:54:10.086Z,8.90
2022-09-17T18:56:37.129Z,10.57
2022-09-17T18:59:07.977Z,8.60
2022-09-17T19:01:35.322Z,9.37
2022-09-17T19:04:02.242Z,8.53
2022-09-17T19:06:30.450Z,9.23
2022-09-17T19:09:00.543Z,7.90
2022-09-17T19:11:27.398Z,7.77
2022-09-17T19:13:54.150Z,7.07
2022-09-17T19:16:20.717Z,6.30
2022-09-17T19:18:47.214Z,11.57
2022-09-17T19:21:15.977Z,6.93
2022-09-17T19:23:44.823Z,8.17
2022-09-17T19:26:14.080Z,6.53
2022-09-17T19:28:40.617Z,7.83
2022-09-17T19:31:10.065Z,10.80
2022-09-17T19:33:36.689Z,8.80
2022-09-17T19:36:05.927Z,8.33
2022-09-17T19:38:32.960Z,6.73
2022-09-17T19:41:01.425Z,7.13
2022-09-17T19:43:27.853Z,8.13
2022-09-17T19:46:04.146Z,8.37
2022-09-17T19:48:30.859Z,9.10
2022-09-17T19:50:57.748Z,10.13
2022-09-17T19:53:27.833Z,9.77
2022-09-17T19:55:54.682Z,14.23
2022-09-17T19:58:21.499Z,7.20
2022-09-17T20:00:47.913Z,8.30
2022-09-17T20:03:14.444Z,7.20
2022-09-17T20:05:40.839Z,10.60
2022-09-17T20:08:07.284Z,6.60
2022-09-17T20:10:37.975Z,9.73
2022-09-17T20:13:04.554Z,9.43
2022-09-17T20:15:34.891Z,8.50
2022-09-17T20:18:01.817Z,7.03
2022-09-17T20:20:28.664Z,9.60
2022-09-17T20:22:55.928Z,5.93
2022-09-17T20:25:24.015Z,7.93
2022-09-17T20:27:50.420Z,10.23
2022-09-17T20:30:16.793Z,7.97
2022-09-17T20:32:43.123Z,6.93
2022-09-17T20:35:09.607Z,9.20
2022-09-17T20:38:32.945Z,6.10
2022-09-17T20:40:22.392Z,7.63
2022-09-17T20:42:48.782Z,6.73
2022-09-17T20:45:15.114Z,7.17
2022-09-17T20:47:41.838Z,6.10
2022-09-17T20:50:08.335Z,7.50
2022-09-17T20:52:34.684Z,8.70
2022-09-17T20:55:01.160Z,4.73
2022-09-17T20:57:27.492Z,5.60
2022-09-17T20:59:56.619Z,4.43
2022-09-17T21:02:23.223Z,9.63
2022-09-17T21:04:53.533Z,8.00
2022-09-17T21:07:20.052Z,7.83
2022-09-17T21:09:46.520Z,4.00
2022-09-17T21:12:12.930Z,4.80
2022-09-17T21:14:39.249Z,9.03
2022-09-17T21:17:05.748Z,9.63
2022-09-17T21:19:32.090Z,10.57
2022-09-17T21:21:58.600Z,7.87
2022-09-17T21:24:25.022Z,8.40
2022-09-17T21:26:53.153Z,7.73
2022-09-17T21:29:19.697Z,16.23
2022-09-17T21:31:46.254Z,10.80
2022-09-17T21:34:13.346Z,7.10
2022-09-17T21:36:41.397Z,5.73
2022-09-17T21:39:12.878Z,7.60
2022-09-17T21:41:42.596Z,8.30
2022-09-17T21:44:13.149Z,9.27
2022-09-17T21:46:41.457Z,8.67
2022-09-17T21:49:08.047Z,5.20
2022-09-17T21:51:42.492Z,5.93
2022-09-17T21:54:11.366Z,8.37
2022-09-17T21:56:38.495Z,3.40
2022-09-17T21:59:08.073Z,4.83
2022-09-17T22:01:40.285Z,2.90
2022-09-17T22:04:12.979Z,3.40
2022-09-17T22:06:40.079Z,3.70
2022-09-17T22:09:08.216Z,4.13
2022-09-17T22:11:36.997Z,5.17
2022-09-17T22:14:13.480Z,5.50
2022-09-17T22:16:42.233Z,3.30
2022-09-17T22:19:09.861Z,7.60
2022-09-17T22:21:39.868Z,5.53
2022-09-17T22:24:07.079Z,4.37
2022-09-17T22:26:36.273Z,5.23
2022-09-17T22:29:05.770Z,5.97
2022-09-17T22:31:32.326Z,5.07
2022-09-17T22:33:59.523Z,3.87
2022-09-17T22:36:26.897Z,2.87
2022-09-17T22:38:58.265Z,4.63
2022-09-17T22:41:30.508Z,4.93
2022-09-17T22:44:07.485Z,5.60
2022-09-17T22:46:36.367Z,5.53
2022-09-17T22:49:03.400Z,4.73
2022-09-17T22:51:30.578Z,3.80
2022-09-17T22:53:58.378Z,7.73
2022-09-17T22:56:27.111Z,6.43
2022-09-17T22:58:53.932Z,10.57
2022-09-17T23:01:28.866Z,5.73
2022-09-17T23:03:55.343Z,7.57
2022-09-17T23:06:24.887Z,5.47
2022-09-17T23:08:52.127Z,4.30
2022-09-17T23:11:25.152Z,4.17
2022-09-17T23:13:52.738Z,5.53
2022-09-17T23:16:19.885Z,5.90
2022-09-17T23:18:46.410Z,6.60
2022-09-17T23:21:15.264Z,5.37
2022-09-17T23:23:43.250Z,8.17
2022-09-17T23:26:13.267Z,6.80
2022-09-17T23:28:40.313Z,7.00
2022-09-17T23:31:13.538Z,5.63
2022-09-17T23:33:40.326Z,2.83
2022-09-17T23:36:15.995Z,7.97
2022-09-17T23:38:44.745Z,7.53
2022-09-17T23:41:12.556Z,9.13
2022-09-17T23:43:39.178Z,4.70
2022-09-17T23:46:05.794Z,6.80
2022-09-17T23:48:32.530Z,4.70
2022-09-17T23:50:59.086Z,6.23
2022-09-17T23:53:25.756Z,4.93
2022-09-17T23:55:52.813Z,5.00
2022-09-17T23:58:19.880Z,6.00
